sensor_id;sensor_type;location;lat;lon;timestamp;temperature;humidity
71206;SHT31;58935;54.498;18.544;2024-01-25T00:02:20;6.18;87.60
71206;SHT31;58935;54.498;18.544;2024-01-25T00:04:48;6.16;87.50
71206;SHT31;58935;54.498;18.544;2024-01-25T00:07:13;6.16;87.71
71206;SHT31;58935;54.498;18.544;2024-01-25T00:09:39;6.16;87.85
71206;SHT31;58935;54.498;18.544;2024-01-25T00:12:04;6.14;87.93
71206;SHT31;58935;54.498;18.544;2024-01-25T00:14:31;6.11;88.07
71206;SHT31;58935;54.498;18.544;2024-01-25T00:16:56;6.11;88.13
71206;SHT31;58935;54.498;18.544;2024-01-25T00:19:21;6.11;88.22
71206;SHT31;58935;54.498;18.544;2024-01-25T00:21:47;6.11;88.56
71206;SHT31;58935;54.498;18.544;2024-01-25T00:24:12;6.12;88.60
71206;SHT31;58935;54.498;18.544;2024-01-25T00:26:39;6.11;88.51
71206;SHT31;58935;54.498;18.544;2024-01-25T00:29:05;6.12;88.49
71206;SHT31;58935;54.498;18.544;2024-01-25T00:31:30;6.12;87.90
71206;SHT31;58935;54.498;18.544;2024-01-25T00:33:57;6.13;87.78
71206;SHT31;58935;54.498;18.544;2024-01-25T00:36:23;6.13;87.69
71206;SHT31;58935;54.498;18.544;2024-01-25T00:38:51;6.12;87.64
71206;SHT31;58935;54.498;18.544;2024-01-25T00:41:18;6.12;87.55
71206;SHT31;58935;54.498;18.544;2024-01-25T00:43:44;6.11;87.47
71206;SHT31;58935;54.498;18.544;2024-01-25T00:46:13;6.09;87.33
71206;SHT31;58935;54.498;18.544;2024-01-25T00:48:42;6.09;87.31
71206;SHT31;58935;54.498;18.544;2024-01-25T00:51:08;6.08;87.31
71206;SHT31;58935;54.498;18.544;2024-01-25T00:53:41;6.07;87.34
71206;SHT31;58935;54.498;18.544;2024-01-25T00:56:10;6.04;87.43
71206;SHT31;58935;54.498;18.544;2024-01-25T00:58:36;6.04;87.40
71206;SHT31;58935;54.498;18.544;2024-01-25T01:01:02;6.05;87.40
71206;SHT31;58935;54.498;18.544;2024-01-25T01:03:28;6.06;87.44
71206;SHT31;58935;54.498;18.544;2024-01-25T01:05:54;6.06;87.50
71206;SHT31;58935;54.498;18.544;2024-01-25T01:08:22;6.05;87.60
71206;SHT31;58935;54.498;18.544;2024-01-25T01:10:48;6.04;87.41
71206;SHT31;58935;54.498;18.544;2024-01-25T01:13:13;6.03;87.46
71206;SHT31;58935;54.498;18.544;2024-01-25T01:15:39;6.03;87.39
71206;SHT31;58935;54.498;18.544;2024-01-25T01:18:04;6.00;87.40
71206;SHT31;58935;54.498;18.544;2024-01-25T01:20:31;6.00;87.47
71206;SHT31;58935;54.498;18.544;2024-01-25T01:22:56;5.98;87.42
71206;SHT31;58935;54.498;18.544;2024-01-25T01:25:22;5.98;87.32
71206;SHT31;58935;54.498;18.544;2024-01-25T01:27:47;5.97;87.33
71206;SHT31;58935;54.498;18.544;2024-01-25T01:30:13;5.94;87.79
71206;SHT31;58935;54.498;18.544;2024-01-25T01:32:38;5.93;88.01
71206;SHT31;58935;54.498;18.544;2024-01-25T01:35:04;5.94;87.74
71206;SHT31;58935;54.498;18.544;2024-01-25T01:37:32;5.95;87.50
71206;SHT31;58935;54.498;18.544;2024-01-25T01:39:59;5.92;87.84
71206;SHT31;58935;54.498;18.544;2024-01-25T01:42:25;5.90;87.99
71206;SHT31;58935;54.498;18.544;2024-01-25T01:44:52;5.90;87.63
71206;SHT31;58935;54.498;18.544;2024-01-25T01:47:19;5.87;87.93
71206;SHT31;58935;54.498;18.544;2024-01-25T01:49:44;5.87;88.03
71206;SHT31;58935;54.498;18.544;2024-01-25T01:52:12;5.87;87.94
71206;SHT31;58935;54.498;18.544;2024-01-25T01:54:38;5.86;87.91
71206;SHT31;58935;54.498;18.544;2024-01-25T01:57:07;5.83;87.91
71206;SHT31;58935;54.498;18.544;2024-01-25T01:59:33;5.82;88.13
71206;SHT31;58935;54.498;18.544;2024-01-25T02:01:59;5.83;88.23
71206;SHT31;58935;54.498;18.544;2024-01-25T02:04:25;5.80;88.06
71206;SHT31;58935;54.498;18.544;2024-01-25T02:06:50;5.80;88.07
71206;SHT31;58935;54.498;18.544;2024-01-25T02:09:16;5.81;87.98
71206;SHT31;58935;54.498;18.544;2024-01-25T02:11:42;5.82;87.87
71206;SHT31;58935;54.498;18.544;2024-01-25T02:14:07;5.82;87.60
71206;SHT31;58935;54.498;18.544;2024-01-25T02:16:36;5.83;87.44
71206;SHT31;58935;54.498;18.544;2024-01-25T02:19:02;5.85;87.24
71206;SHT31;58935;54.498;18.544;2024-01-25T02:21:30;5.86;87.26
71206;SHT31;58935;54.498;18.544;2024-01-25T02:23:56;5.84;86.84
71206;SHT31;58935;54.498;18.544;2024-01-25T02:26:23;5.85;86.65
71206;SHT31;58935;54.498;18.544;2024-01-25T02:28:49;5.84;86.40
71206;SHT31;58935;54.498;18.544;2024-01-25T02:31:14;5.84;86.40
71206;SHT31;58935;54.498;18.544;2024-01-25T02:33:40;5.82;86.40
71206;SHT31;58935;54.498;18.544;2024-01-25T02:36:08;5.81;86.38
71206;SHT31;58935;54.498;18.544;2024-01-25T02:38:33;5.81;86.33
71206;SHT31;58935;54.498;18.544;2024-01-25T02:40:59;5.80;86.23
71206;SHT31;58935;54.498;18.544;2024-01-25T02:43:27;5.79;86.17
71206;SHT31;58935;54.498;18.544;2024-01-25T02:45:52;5.78;86.20
71206;SHT31;58935;54.498;18.544;2024-01-25T02:48:17;5.76;86.09
71206;SHT31;58935;54.498;18.544;2024-01-25T02:50:43;5.76;86.13
71206;SHT31;58935;54.498;18.544;2024-01-25T02:53:08;5.75;86.24
71206;SHT31;58935;54.498;18.544;2024-01-25T02:55:34;5.73;86.44
71206;SHT31;58935;54.498;18.544;2024-01-25T02:57:59;5.71;86.61
71206;SHT31;58935;54.498;18.544;2024-01-25T03:00:25;5.70;86.84
71206;SHT31;58935;54.498;18.544;2024-01-25T03:02:53;5.69;87.07
71206;SHT31;58935;54.498;18.544;2024-01-25T03:05:18;5.68;87.23
71206;SHT31;58935;54.498;18.544;2024-01-25T03:07:46;5.68;87.67
71206;SHT31;58935;54.498;18.544;2024-01-25T03:10:12;5.66;87.64
71206;SHT31;58935;54.498;18.544;2024-01-25T03:12:38;5.65;87.54
71206;SHT31;58935;54.498;18.544;2024-01-25T03:15:04;5.66;87.71
71206;SHT31;58935;54.498;18.544;2024-01-25T03:17:30;5.64;88.31
71206;SHT31;58935;54.498;18.544;2024-01-25T03:19:56;5.60;88.33
71206;SHT31;58935;54.498;18.544;2024-01-25T03:22:21;5.60;88.22
71206;SHT31;58935;54.498;18.544;2024-01-25T03:24:47;5.60;88.41
71206;SHT31;58935;54.498;18.544;2024-01-25T03:27:13;5.60;88.38
71206;SHT31;58935;54.498;18.544;2024-01-25T03:29:41;5.61;88.31
71206;SHT31;58935;54.498;18.544;2024-01-25T03:32:08;5.61;88.10
71206;SHT31;58935;54.498;18.544;2024-01-25T03:34:35;5.63;87.88
71206;SHT31;58935;54.498;18.544;2024-01-25T03:37:01;5.65;87.76
71206;SHT31;58935;54.498;18.544;2024-01-25T03:39:26;5.65;87.62
71206;SHT31;58935;54.498;18.544;2024-01-25T03:41:52;5.65;87.59
71206;SHT31;58935;54.498;18.544;2024-01-25T03:44:17;5.65;87.56
71206;SHT31;58935;54.498;18.544;2024-01-25T03:46:43;5.65;87.34
71206;SHT31;58935;54.498;18.544;2024-01-25T03:49:08;5.64;87.32
71206;SHT31;58935;54.498;18.544;2024-01-25T03:51:34;5.64;87.28
71206;SHT31;58935;54.498;18.544;2024-01-25T03:53:59;5.63;87.21
71206;SHT31;58935;54.498;18.544;2024-01-25T03:56:25;5.62;87.20
71206;SHT31;58935;54.498;18.544;2024-01-25T03:58:52;5.59;87.13
71206;SHT31;58935;54.498;18.544;2024-01-25T04:01:17;5.58;87.05
71206;SHT31;58935;54.498;18.544;2024-01-25T04:03:43;5.58;87.06
71206;SHT31;58935;54.498;18.544;2024-01-25T04:06:08;5.58;87.21
71206;SHT31;58935;54.498;18.544;2024-01-25T04:08:34;5.58;87.22
71206;SHT31;58935;54.498;18.544;2024-01-25T04:11:00;5.59;87.14
71206;SHT31;58935;54.498;18.544;2024-01-25T04:13:25;5.61;86.99
71206;SHT31;58935;54.498;18.544;2024-01-25T04:15:51;5.61;86.97
71206;SHT31;58935;54.498;18.544;2024-01-25T04:18:16;5.63;86.97
71206;SHT31;58935;54.498;18.544;2024-01-25T04:20:42;5.63;87.04
71206;SHT31;58935;54.498;18.544;2024-01-25T04:23:09;5.63;87.15
71206;SHT31;58935;54.498;18.544;2024-01-25T04:25:34;5.62;87.32
71206;SHT31;58935;54.498;18.544;2024-01-25T04:28:00;5.62;87.37
71206;SHT31;58935;54.498;18.544;2024-01-25T04:30:27;5.62;87.72
71206;SHT31;58935;54.498;18.544;2024-01-25T04:32:52;5.64;87.85
71206;SHT31;58935;54.498;18.544;2024-01-25T04:35:18;5.66;87.53
71206;SHT31;58935;54.498;18.544;2024-01-25T04:37:43;5.69;87.02
71206;SHT31;58935;54.498;18.544;2024-01-25T04:40:09;5.69;86.90
71206;SHT31;58935;54.498;18.544;2024-01-25T04:42:35;5.71;86.81
71206;SHT31;58935;54.498;18.544;2024-01-25T04:45:00;5.70;86.75
71206;SHT31;58935;54.498;18.544;2024-01-25T04:47:26;5.70;86.74
71206;SHT31;58935;54.498;18.544;2024-01-25T04:49:51;5.70;86.84
71206;SHT31;58935;54.498;18.544;2024-01-25T04:52:17;5.69;86.82
71206;SHT31;58935;54.498;18.544;2024-01-25T04:54:42;5.70;86.80
71206;SHT31;58935;54.498;18.544;2024-01-25T04:57:10;5.70;86.85
71206;SHT31;58935;54.498;18.544;2024-01-25T04:59:38;5.70;86.97
71206;SHT31;58935;54.498;18.544;2024-01-25T05:02:03;5.70;87.16
71206;SHT31;58935;54.498;18.544;2024-01-25T05:04:29;5.70;86.96
71206;SHT31;58935;54.498;18.544;2024-01-25T05:06:56;5.72;86.93
71206;SHT31;58935;54.498;18.544;2024-01-25T05:09:22;5.72;87.01
71206;SHT31;58935;54.498;18.544;2024-01-25T05:11:47;5.72;87.23
71206;SHT31;58935;54.498;18.544;2024-01-25T05:14:13;5.70;87.67
71206;SHT31;58935;54.498;18.544;2024-01-25T05:16:39;5.71;87.56
71206;SHT31;58935;54.498;18.544;2024-01-25T05:19:04;5.70;87.65
71206;SHT31;58935;54.498;18.544;2024-01-25T05:21:30;5.71;87.72
71206;SHT31;58935;54.498;18.544;2024-01-25T05:23:56;5.71;87.76
71206;SHT31;58935;54.498;18.544;2024-01-25T05:26:21;5.71;87.78
71206;SHT31;58935;54.498;18.544;2024-01-25T05:28:47;5.73;87.88
71206;SHT31;58935;54.498;18.544;2024-01-25T05:31:13;5.74;87.86
71206;SHT31;58935;54.498;18.544;2024-01-25T05:33:39;5.74;87.90
71206;SHT31;58935;54.498;18.544;2024-01-25T05:36:05;5.74;87.98
71206;SHT31;58935;54.498;18.544;2024-01-25T05:38:32;5.74;88.19
71206;SHT31;58935;54.498;18.544;2024-01-25T05:40:58;5.72;88.20
71206;SHT31;58935;54.498;18.544;2024-01-25T05:43:25;5.74;88.14
71206;SHT31;58935;54.498;18.544;2024-01-25T05:45:51;5.72;87.99
71206;SHT31;58935;54.498;18.544;2024-01-25T05:48:16;5.73;87.92
71206;SHT31;58935;54.498;18.544;2024-01-25T05:50:42;5.74;87.90
71206;SHT31;58935;54.498;18.544;2024-01-25T05:53:08;5.75;87.86
71206;SHT31;58935;54.498;18.544;2024-01-25T05:55:33;5.75;87.97
71206;SHT31;58935;54.498;18.544;2024-01-25T05:57:59;5.73;87.94
71206;SHT31;58935;54.498;18.544;2024-01-25T06:00:24;5.73;88.10
71206;SHT31;58935;54.498;18.544;2024-01-25T06:02:50;5.73;88.19
71206;SHT31;58935;54.498;18.544;2024-01-25T06:05:15;5.72;88.46
71206;SHT31;58935;54.498;18.544;2024-01-25T06:07:43;5.74;88.56
71206;SHT31;58935;54.498;18.544;2024-01-25T06:10:08;5.72;88.39
71206;SHT31;58935;54.498;18.544;2024-01-25T06:12:34;5.71;88.44
71206;SHT31;58935;54.498;18.544;2024-01-25T06:15:00;5.72;88.60
71206;SHT31;58935;54.498;18.544;2024-01-25T06:17:25;5.72;88.64
71206;SHT31;58935;54.498;18.544;2024-01-25T06:19:51;5.70;88.61
71206;SHT31;58935;54.498;18.544;2024-01-25T06:22:19;5.69;88.91
71206;SHT31;58935;54.498;18.544;2024-01-25T06:24:44;5.67;88.94
71206;SHT31;58935;54.498;18.544;2024-01-25T06:27:10;5.65;88.86
71206;SHT31;58935;54.498;18.544;2024-01-25T06:29:35;5.65;88.84
71206;SHT31;58935;54.498;18.544;2024-01-25T06:32:01;5.62;88.98
71206;SHT31;58935;54.498;18.544;2024-01-25T06:34:27;5.60;89.06
71206;SHT31;58935;54.498;18.544;2024-01-25T06:36:53;5.59;89.21
71206;SHT31;58935;54.498;18.544;2024-01-25T06:39:18;5.56;89.34
71206;SHT31;58935;54.498;18.544;2024-01-25T06:41:43;5.54;89.50
71206;SHT31;58935;54.498;18.544;2024-01-25T06:44:09;5.52;89.46
71206;SHT31;58935;54.498;18.544;2024-01-25T06:46:35;5.49;89.48
71206;SHT31;58935;54.498;18.544;2024-01-25T06:49:00;5.47;89.82
71206;SHT31;58935;54.498;18.544;2024-01-25T06:51:26;5.39;89.75
71206;SHT31;58935;54.498;18.544;2024-01-25T06:53:52;5.07;88.42
71206;SHT31;58935;54.498;18.544;2024-01-25T06:56:17;4.79;88.16
71206;SHT31;58935;54.498;18.544;2024-01-25T06:58:43;4.58;88.40
71206;SHT31;58935;54.498;18.544;2024-01-25T07:01:08;4.44;88.79
71206;SHT31;58935;54.498;18.544;2024-01-25T07:03:34;4.32;89.15
71206;SHT31;58935;54.498;18.544;2024-01-25T07:06:00;4.23;89.39
71206;SHT31;58935;54.498;18.544;2024-01-25T07:08:25;4.16;89.63
71206;SHT31;58935;54.498;18.544;2024-01-25T07:10:51;4.11;89.89
71206;SHT31;58935;54.498;18.544;2024-01-25T07:13:17;4.08;90.07
71206;SHT31;58935;54.498;18.544;2024-01-25T07:15:42;4.07;90.14
71206;SHT31;58935;54.498;18.544;2024-01-25T07:18:08;4.01;89.88
71206;SHT31;58935;54.498;18.544;2024-01-25T07:20:33;3.87;89.50
71206;SHT31;58935;54.498;18.544;2024-01-25T07:22:59;3.72;89.31
71206;SHT31;58935;54.498;18.544;2024-01-25T07:25:24;3.62;89.41
71206;SHT31;58935;54.498;18.544;2024-01-25T07:27:50;3.53;89.62
71206;SHT31;58935;54.498;18.544;2024-01-25T07:30:15;3.46;89.93
71206;SHT31;58935;54.498;18.544;2024-01-25T07:32:41;3.41;90.14
71206;SHT31;58935;54.498;18.544;2024-01-25T07:35:08;3.37;90.20
71206;SHT31;58935;54.498;18.544;2024-01-25T07:37:35;3.33;90.41
71206;SHT31;58935;54.498;18.544;2024-01-25T07:40:03;3.30;90.69
71206;SHT31;58935;54.498;18.544;2024-01-25T07:42:29;3.28;90.87
71206;SHT31;58935;54.498;18.544;2024-01-25T07:44:55;3.26;90.85
71206;SHT31;58935;54.498;18.544;2024-01-25T07:47:23;3.27;90.69
71206;SHT31;58935;54.498;18.544;2024-01-25T07:49:48;3.25;90.47
71206;SHT31;58935;54.498;18.544;2024-01-25T07:52:14;3.24;90.45
71206;SHT31;58935;54.498;18.544;2024-01-25T07:54:39;3.24;89.97
71206;SHT31;58935;54.498;18.544;2024-01-25T07:57:05;3.23;89.70
71206;SHT31;58935;54.498;18.544;2024-01-25T07:59:30;3.22;89.61
71206;SHT31;58935;54.498;18.544;2024-01-25T08:01:56;3.21;89.52
71206;SHT31;58935;54.498;18.544;2024-01-25T08:04:21;3.21;89.34
71206;SHT31;58935;54.498;18.544;2024-01-25T08:06:47;3.21;89.20
71206;SHT31;58935;54.498;18.544;2024-01-25T08:09:12;3.20;89.12
71206;SHT31;58935;54.498;18.544;2024-01-25T08:11:39;3.20;88.96
71206;SHT31;58935;54.498;18.544;2024-01-25T08:14:06;3.20;88.82
71206;SHT31;58935;54.498;18.544;2024-01-25T08:16:32;3.19;88.63
71206;SHT31;58935;54.498;18.544;2024-01-25T08:18:57;3.18;88.49
71206;SHT31;58935;54.498;18.544;2024-01-25T08:21:23;3.18;88.37
71206;SHT31;58935;54.498;18.544;2024-01-25T08:23:49;3.17;88.46
71206;SHT31;58935;54.498;18.544;2024-01-25T08:26:15;3.17;88.50
71206;SHT31;58935;54.498;18.544;2024-01-25T08:28:41;3.19;88.46
71206;SHT31;58935;54.498;18.544;2024-01-25T08:31:09;3.19;87.89
71206;SHT31;58935;54.498;18.544;2024-01-25T08:33:36;3.22;87.66
71206;SHT31;58935;54.498;18.544;2024-01-25T08:36:02;3.22;87.16
71206;SHT31;58935;54.498;18.544;2024-01-25T08:38:28;3.25;86.84
71206;SHT31;58935;54.498;18.544;2024-01-25T08:40:53;3.24;86.00
71206;SHT31;58935;54.498;18.544;2024-01-25T08:43:19;3.25;85.60
71206;SHT31;58935;54.498;18.544;2024-01-25T08:45:44;3.27;85.49
71206;SHT31;58935;54.498;18.544;2024-01-25T08:48:11;3.29;85.31
71206;SHT31;58935;54.498;18.544;2024-01-25T08:50:38;3.32;85.20
71206;SHT31;58935;54.498;18.544;2024-01-25T08:53:03;3.33;85.01
71206;SHT31;58935;54.498;18.544;2024-01-25T08:55:30;3.35;85.15
71206;SHT31;58935;54.498;18.544;2024-01-25T08:57:55;3.36;84.77
71206;SHT31;58935;54.498;18.544;2024-01-25T09:00:21;3.41;84.76
71206;SHT31;58935;54.498;18.544;2024-01-25T09:02:46;3.43;84.62
71206;SHT31;58935;54.498;18.544;2024-01-25T09:05:12;3.44;84.33
71206;SHT31;58935;54.498;18.544;2024-01-25T09:07:37;3.51;84.34
71206;SHT31;58935;54.498;18.544;2024-01-25T09:10:03;3.53;83.93
71206;SHT31;58935;54.498;18.544;2024-01-25T09:12:31;3.56;83.85
71206;SHT31;58935;54.498;18.544;2024-01-25T09:14:57;3.58;83.92
71206;SHT31;58935;54.498;18.544;2024-01-25T09:17:22;3.61;83.91
71206;SHT31;58935;54.498;18.544;2024-01-25T09:19:48;3.67;84.19
71206;SHT31;58935;54.498;18.544;2024-01-25T09:22:15;3.71;84.15
71206;SHT31;58935;54.498;18.544;2024-01-25T09:24:43;3.74;83.76
71206;SHT31;58935;54.498;18.544;2024-01-25T09:27:09;3.75;83.63
71206;SHT31;58935;54.498;18.544;2024-01-25T09:29:35;3.76;83.37
71206;SHT31;58935;54.498;18.544;2024-01-25T09:32:00;3.79;83.40
71206;SHT31;58935;54.498;18.544;2024-01-25T09:34:25;3.83;83.37
71206;SHT31;58935;54.498;18.544;2024-01-25T09:47:10;3.94;82.73
71206;SHT31;58935;54.498;18.544;2024-01-25T09:49:36;3.95;82.35
71206;SHT31;58935;54.498;18.544;2024-01-25T09:52:03;3.99;82.24
71206;SHT31;58935;54.498;18.544;2024-01-25T09:54:32;4.04;82.14
71206;SHT31;58935;54.498;18.544;2024-01-25T10:02:12;4.19;82.17
71206;SHT31;58935;54.498;18.544;2024-01-25T10:04:38;4.24;82.51
71206;SHT31;58935;54.498;18.544;2024-01-25T10:09:41;4.22;81.44
71206;SHT31;58935;54.498;18.544;2024-01-25T10:12:08;4.20;81.08
71206;SHT31;58935;54.498;18.544;2024-01-25T10:14:34;4.23;81.14
71206;SHT31;58935;54.498;18.544;2024-01-25T10:17:02;4.26;81.16
71206;SHT31;58935;54.498;18.544;2024-01-25T10:19:28;4.28;80.93
71206;SHT31;58935;54.498;18.544;2024-01-25T10:21:55;4.33;80.96
71206;SHT31;58935;54.498;18.544;2024-01-25T10:24:24;4.36;80.75
71206;SHT31;58935;54.498;18.544;2024-01-25T10:26:49;4.36;80.23
71206;SHT31;58935;54.498;18.544;2024-01-25T10:29:14;4.38;80.30
71206;SHT31;58935;54.498;18.544;2024-01-25T10:31:40;4.37;79.89
71206;SHT31;58935;54.498;18.544;2024-01-25T10:34:08;4.34;79.39
71206;SHT31;58935;54.498;18.544;2024-01-25T10:36:38;4.35;79.82
71206;SHT31;58935;54.498;18.544;2024-01-25T10:39:08;4.32;79.86
71206;SHT31;58935;54.498;18.544;2024-01-25T10:41:34;4.28;79.49
71206;SHT31;58935;54.498;18.544;2024-01-25T10:44:00;4.22;79.58
71206;SHT31;58935;54.498;18.544;2024-01-25T10:46:31;4.23;79.79
71206;SHT31;58935;54.498;18.544;2024-01-25T10:48:58;4.25;79.83
71206;SHT31;58935;54.498;18.544;2024-01-25T10:51:31;4.30;80.05
71206;SHT31;58935;54.498;18.544;2024-01-25T10:56:43;4.39;79.71
71206;SHT31;58935;54.498;18.544;2024-01-25T10:59:16;4.37;79.53
71206;SHT31;58935;54.498;18.544;2024-01-25T11:01:44;4.35;79.51
71206;SHT31;58935;54.498;18.544;2024-01-25T11:04:14;4.38;79.47
71206;SHT31;58935;54.498;18.544;2024-01-25T11:06:44;4.41;79.19
71206;SHT31;58935;54.498;18.544;2024-01-25T11:09:16;4.43;79.09
71206;SHT31;58935;54.498;18.544;2024-01-25T11:11:46;4.43;79.15
71206;SHT31;58935;54.498;18.544;2024-01-25T11:14:14;4.45;79.20
71206;SHT31;58935;54.498;18.544;2024-01-25T11:16:42;4.41;78.84
71206;SHT31;58935;54.498;18.544;2024-01-25T11:19:15;4.39;79.00
71206;SHT31;58935;54.498;18.544;2024-01-25T11:21:43;4.36;79.26
71206;SHT31;58935;54.498;18.544;2024-01-25T11:26:44;4.30;79.32
71206;SHT31;58935;54.498;18.544;2024-01-25T11:29:13;4.27;79.65
71206;SHT31;58935;54.498;18.544;2024-01-25T11:31:43;4.24;79.52
71206;SHT31;58935;54.498;18.544;2024-01-25T11:34:10;4.20;79.45
71206;SHT31;58935;54.498;18.544;2024-01-25T11:36:37;4.18;79.71
71206;SHT31;58935;54.498;18.544;2024-01-25T11:39:03;4.14;79.41
71206;SHT31;58935;54.498;18.544;2024-01-25T11:41:32;4.10;79.51
71206;SHT31;58935;54.498;18.544;2024-01-25T11:46:34;4.05;79.95
71206;SHT31;58935;54.498;18.544;2024-01-25T11:49:03;4.03;80.12
71206;SHT31;58935;54.498;18.544;2024-01-25T11:56:43;4.02;80.57
71206;SHT31;58935;54.498;18.544;2024-01-25T11:59:09;3.99;80.15
71206;SHT31;58935;54.498;18.544;2024-01-25T12:01:36;3.97;80.30
71206;SHT31;58935;54.498;18.544;2024-01-25T12:04:05;3.94;80.09
71206;SHT31;58935;54.498;18.544;2024-01-25T12:06:32;3.90;79.92
71206;SHT31;58935;54.498;18.544;2024-01-25T12:11:33;3.86;79.97
71206;SHT31;58935;54.498;18.544;2024-01-25T12:14:00;3.86;79.71
71206;SHT31;58935;54.498;18.544;2024-01-25T12:16:25;3.84;79.65
71206;SHT31;58935;54.498;18.544;2024-01-25T12:18:51;3.80;79.97
71206;SHT31;58935;54.498;18.544;2024-01-25T12:21:16;3.77;80.56
71206;SHT31;58935;54.498;18.544;2024-01-25T12:23:43;3.76;80.98
71206;SHT31;58935;54.498;18.544;2024-01-25T12:26:09;3.75;81.02
71206;SHT31;58935;54.498;18.544;2024-01-25T12:28:36;3.73;80.80
71206;SHT31;58935;54.498;18.544;2024-01-25T12:31:03;3.70;80.88
71206;SHT31;58935;54.498;18.544;2024-01-25T12:33:31;3.67;80.91
71206;SHT31;58935;54.498;18.544;2024-01-25T12:35:58;3.64;81.34
71206;SHT31;58935;54.498;18.544;2024-01-25T12:38:25;3.63;81.72
71206;SHT31;58935;54.498;18.544;2024-01-25T12:40:57;3.62;82.12
71206;SHT31;58935;54.498;18.544;2024-01-25T12:43:22;3.58;82.38
71206;SHT31;58935;54.498;18.544;2024-01-25T12:53:48;3.38;84.71
71206;SHT31;58935;54.498;18.544;2024-01-25T13:01:34;3.36;84.75
71206;SHT31;58935;54.498;18.544;2024-01-25T13:03:59;3.32;83.99
71206;SHT31;58935;54.498;18.544;2024-01-25T13:06:28;3.30;83.62
71206;SHT31;58935;54.498;18.544;2024-01-25T13:08:53;3.27;83.50
71206;SHT31;58935;54.498;18.544;2024-01-25T13:11:19;3.26;83.47
71206;SHT31;58935;54.498;18.544;2024-01-25T13:13:44;3.25;83.57
71206;SHT31;58935;54.498;18.544;2024-01-25T13:16:10;3.27;83.71
71206;SHT31;58935;54.498;18.544;2024-01-25T13:18:35;3.27;83.60
71206;SHT31;58935;54.498;18.544;2024-01-25T13:21:01;3.26;83.27
71206;SHT31;58935;54.498;18.544;2024-01-25T13:23:26;3.25;83.26
71206;SHT31;58935;54.498;18.544;2024-01-25T13:25:54;3.24;82.77
71206;SHT31;58935;54.498;18.544;2024-01-25T13:28:20;3.24;82.74
71206;SHT31;58935;54.498;18.544;2024-01-25T13:30:45;3.25;82.58
71206;SHT31;58935;54.498;18.544;2024-01-25T13:33:11;3.25;82.12
71206;SHT31;58935;54.498;18.544;2024-01-25T13:35:36;3.26;81.87
71206;SHT31;58935;54.498;18.544;2024-01-25T13:38:01;3.27;81.66
71206;SHT31;58935;54.498;18.544;2024-01-25T13:40:27;3.28;81.48
71206;SHT31;58935;54.498;18.544;2024-01-25T13:42:53;3.28;81.09
71206;SHT31;58935;54.498;18.544;2024-01-25T13:45:20;3.28;80.86
71206;SHT31;58935;54.498;18.544;2024-01-25T13:47:48;3.23;79.84
71206;SHT31;58935;54.498;18.544;2024-01-25T13:50:13;3.22;80.10
71206;SHT31;58935;54.498;18.544;2024-01-25T13:52:39;3.21;80.30
71206;SHT31;58935;54.498;18.544;2024-01-25T13:55:05;3.20;80.31
71206;SHT31;58935;54.498;18.544;2024-01-25T13:57:31;3.20;80.29
71206;SHT31;58935;54.498;18.544;2024-01-25T13:59:56;3.19;80.68
71206;SHT31;58935;54.498;18.544;2024-01-25T14:02:22;3.16;80.91
71206;SHT31;58935;54.498;18.544;2024-01-25T14:04:47;3.12;81.24
71206;SHT31;58935;54.498;18.544;2024-01-25T14:07:15;3.09;81.44
71206;SHT31;58935;54.498;18.544;2024-01-25T14:09:42;3.07;81.68
71206;SHT31;58935;54.498;18.544;2024-01-25T14:12:07;3.07;81.79
71206;SHT31;58935;54.498;18.544;2024-01-25T14:14:33;3.06;81.89
71206;SHT31;58935;54.498;18.544;2024-01-25T14:16:58;3.05;81.83
71206;SHT31;58935;54.498;18.544;2024-01-25T14:19:24;3.07;82.04
71206;SHT31;58935;54.498;18.544;2024-01-25T14:21:49;3.06;82.35
71206;SHT31;58935;54.498;18.544;2024-01-25T14:24:16;3.04;82.52
71206;SHT31;58935;54.498;18.544;2024-01-25T14:26:41;2.98;82.37
71206;SHT31;58935;54.498;18.544;2024-01-25T14:29:12;2.94;82.33
71206;SHT31;58935;54.498;18.544;2024-01-25T14:31:39;2.90;82.21
71206;SHT31;58935;54.498;18.544;2024-01-25T14:34:07;2.87;82.23
71206;SHT31;58935;54.498;18.544;2024-01-25T14:36:36;2.86;82.26
71206;SHT31;58935;54.498;18.544;2024-01-25T14:39:02;2.86;82.32
71206;SHT31;58935;54.498;18.544;2024-01-25T14:41:31;2.87;82.17
71206;SHT31;58935;54.498;18.544;2024-01-25T14:43:58;2.87;81.67
71206;SHT31;58935;54.498;18.544;2024-01-25T14:46:27;2.88;81.05
71206;SHT31;58935;54.498;18.544;2024-01-25T14:48:53;2.87;80.10
71206;SHT31;58935;54.498;18.544;2024-01-25T14:51:18;2.87;80.12
71206;SHT31;58935;54.498;18.544;2024-01-25T14:53:45;2.86;80.49
71206;SHT31;58935;54.498;18.544;2024-01-25T14:56:12;2.83;81.04
71206;SHT31;58935;54.498;18.544;2024-01-25T14:58:38;2.81;81.47
71206;SHT31;58935;54.498;18.544;2024-01-25T15:01:05;2.78;81.88
71206;SHT31;58935;54.498;18.544;2024-01-25T15:03:31;2.74;82.14
71206;SHT31;58935;54.498;18.544;2024-01-25T15:05:56;2.71;82.46
71206;SHT31;58935;54.498;18.544;2024-01-25T15:08:23;2.67;82.59
71206;SHT31;58935;54.498;18.544;2024-01-25T15:10:48;2.65;82.45
71206;SHT31;58935;54.498;18.544;2024-01-25T15:13:14;2.61;82.18
71206;SHT31;58935;54.498;18.544;2024-01-25T15:15:39;2.60;82.12
71206;SHT31;58935;54.498;18.544;2024-01-25T15:18:07;2.58;82.08
71206;SHT31;58935;54.498;18.544;2024-01-25T15:20:33;2.58;82.04
71206;SHT31;58935;54.498;18.544;2024-01-25T15:23:03;2.56;82.08
71206;SHT31;58935;54.498;18.544;2024-01-25T15:25:29;2.55;82.04
71206;SHT31;58935;54.498;18.544;2024-01-25T15:27:54;2.53;82.09
71206;SHT31;58935;54.498;18.544;2024-01-25T15:30:20;2.51;82.19
71206;SHT31;58935;54.498;18.544;2024-01-25T15:32:46;2.48;82.45
71206;SHT31;58935;54.498;18.544;2024-01-25T15:35:12;2.45;82.76
71206;SHT31;58935;54.498;18.544;2024-01-25T15:37:38;2.43;83.03
71206;SHT31;58935;54.498;18.544;2024-01-25T15:40:06;2.41;83.34
71206;SHT31;58935;54.498;18.544;2024-01-25T15:42:36;2.38;83.63
71206;SHT31;58935;54.498;18.544;2024-01-25T15:45:03;2.33;84.02
71206;SHT31;58935;54.498;18.544;2024-01-25T15:47:31;2.32;84.29
71206;SHT31;58935;54.498;18.544;2024-01-25T15:49:58;2.31;84.40
71206;SHT31;58935;54.498;18.544;2024-01-25T15:52:23;2.29;84.49
71206;SHT31;58935;54.498;18.544;2024-01-25T15:54:49;2.28;84.52
71206;SHT31;58935;54.498;18.544;2024-01-25T15:57:15;2.27;84.66
71206;SHT31;58935;54.498;18.544;2024-01-25T15:59:40;2.29;84.70
71206;SHT31;58935;54.498;18.544;2024-01-25T16:02:07;2.31;84.69
71206;SHT31;58935;54.498;18.544;2024-01-25T16:04:33;2.33;84.66
71206;SHT31;58935;54.498;18.544;2024-01-25T16:06:58;2.37;84.58
71206;SHT31;58935;54.498;18.544;2024-01-25T16:09:24;2.39;84.45
71206;SHT31;58935;54.498;18.544;2024-01-25T16:11:50;2.40;84.30